createdAt,value
2019-02-02T00:05:02.150Z,12.50
2019-02-02T00:08:26.314Z,11.87
2019-02-02T00:11:29.762Z,12.53
2019-02-02T00:14:33.140Z,12.37
2019-02-02T00:17:36.825Z,12.03
2019-02-02T00:20:40.199Z,12.20
2019-02-02T00:23:43.579Z,13.03
2019-02-02T00:26:46.954Z,12.63
2019-02-02T00:29:50.347Z,12.03
2019-02-02T00:32:53.986Z,12.40
2019-02-02T00:35:57.372Z,12.27
2019-02-02T00:39:00.767Z,12.17
2019-02-02T00:42:04.212Z,11.70
2019-02-02T00:45:47.694Z,12.90
2019-02-02T00:48:51.311Z,12.17
2019-02-02T00:51:54.690Z,12.90
2019-02-02T00:54:58.322Z,13.03
2019-02-02T00:58:01.944Z,13.47
2019-02-02T01:01:45.502Z,12.90
2019-02-02T01:04:48.888Z,11.97
2019-02-02T01:08:32.164Z,13.37
2019-02-02T01:11:35.561Z,14.30
2019-02-02T01:14:39.240Z,13.30
2019-02-02T01:17:42.699Z,13.37
2019-02-02T01:20:46.081Z,12.13
2019-02-02T01:23:49.453Z,13.10
2019-02-02T01:26:52.903Z,12.93
2019-02-02T01:29:56.280Z,13.40
2019-02-02T01:32:59.655Z,12.87
2019-02-02T01:36:03.033Z,13.10
2019-02-02T01:39:27.199Z,12.13
2019-02-02T01:42:30.591Z,12.67
2019-02-02T01:46:13.908Z,13.27
2019-02-02T01:49:17.297Z,13.10
2019-02-02T01:52:20.663Z,13.03
2019-02-02T02:00:12.456Z,12.87
2019-02-02T02:03:15.827Z,12.60
2019-02-02T02:06:19.211Z,14.10
2019-02-02T02:09:22.586Z,13.63
2019-02-02T02:12:25.972Z,13.27
2019-02-02T02:15:29.357Z,13.53
2019-02-02T02:18:32.753Z,12.70
2019-02-02T02:21:36.145Z,13.57
2019-02-02T02:24:39.519Z,12.50
2019-02-02T02:27:42.901Z,12.80
2019-02-02T02:30:47.552Z,12.27
2019-02-02T02:33:51.703Z,13.67
2019-02-02T02:36:55.074Z,14.23
2019-02-02T02:39:58.683Z,14.03
2019-02-02T02:43:02.131Z,13.77
2019-02-02T02:46:05.513Z,13.80
2019-02-02T02:49:08.909Z,13.93
2019-02-02T02:52:12.290Z,12.80
2019-02-02T02:55:55.734Z,13.43
2019-02-02T02:59:18.384Z,12.40
2019-02-02T03:02:21.992Z,12.53
2019-02-02T03:05:25.527Z,13.50
2019-02-02T03:08:28.903Z,13.67
2019-02-02T03:11:51.851Z,13.20
2019-02-02T03:14:55.244Z,11.93
2019-02-02T03:17:58.687Z,11.97
2019-02-02T03:21:02.054Z,12.87
2019-02-02T03:24:05.508Z,12.27
2019-02-02T03:27:08.885Z,12.70
2019-02-02T03:30:52.201Z,12.67
2019-02-02T03:33:55.586Z,13.37
2019-02-02T03:36:58.963Z,12.50
2019-02-02T03:40:02.411Z,12.07
2019-02-02T03:43:05.783Z,11.87
2019-02-02T03:46:09.176Z,12.33
2019-02-02T03:49:12.546Z,12.63
2019-02-02T03:52:15.932Z,11.53
2019-02-02T03:55:19.390Z,11.90
2019-02-02T03:58:22.758Z,12.77
2019-02-02T04:01:26.135Z,13.00
2019-02-02T04:04:29.826Z,12.40
2019-02-02T04:07:33.214Z,12.40
2019-02-02T04:10:36.597Z,13.17
2019-02-02T04:13:39.975Z,13.50
2019-02-02T04:16:43.352Z,12.37
2019-02-02T04:19:46.723Z,12.77
2019-02-02T04:26:20.358Z,12.03
2019-02-02T04:29:23.744Z,12.40
2019-02-02T04:32:27.128Z,12.70
2019-02-02T04:35:30.503Z,12.60
2019-02-02T04:38:33.961Z,14.03
2019-02-02T04:41:37.344Z,12.90
2019-02-02T04:44:40.729Z,15.03
2019-02-02T04:47:44.122Z,13.77
2019-02-02T04:50:47.485Z,14.97
2019-02-02T04:53:50.863Z,14.30
2019-02-02T04:57:13.750Z,14.43
2019-02-02T05:00:36.522Z,14.07
2019-02-02T05:03:39.900Z,13.93
2019-02-02T05:06:43.269Z,13.37
2019-02-02T05:09:46.640Z,13.43
2019-02-02T05:12:50.230Z,13.83
2019-02-02T05:15:53.623Z,13.73
2019-02-02T05:18:57.011Z,14.33
2019-02-02T05:22:00.379Z,13.50
2019-02-02T05:28:33.362Z,13.47
2019-02-02T05:31:36.750Z,13.27
2019-02-02T05:34:40.125Z,12.90
2019-02-02T05:37:43.492Z,13.30
2019-02-02T05:40:46.883Z,13.60
2019-02-02T05:43:50.265Z,13.43
2019-02-02T05:46:53.752Z,13.43
2019-02-02T05:49:57.139Z,13.77
2019-02-02T05:53:00.516Z,13.20
2019-02-02T05:56:03.970Z,13.67
2019-02-02T05:59:07.339Z,13.37
2019-02-02T06:02:10.796Z,13.23
2019-02-02T06:05:14.254Z,15.53
2019-02-02T06:08:17.630Z,15.50
2019-02-02T06:11:21.254Z,15.43
2019-02-02T06:14:24.638Z,15.53
2019-02-02T06:17:28.015Z,16.13
2019-02-02T06:20:31.407Z,15.90
2019-02-02T06:23:34.777Z,16.37
2019-02-02T06:26:38.157Z,16.63
2019-02-02T06:29:41.534Z,16.63
2019-02-02T06:32:45.212Z,17.27
2019-02-02T06:35:48.614Z,15.90
2019-02-02T06:38:52.007Z,16.63
2019-02-02T06:41:55.410Z,16.30
2019-02-02T06:44:58.964Z,16.60
2019-02-02T06:48:21.771Z,17.57
2019-02-02T06:51:25.162Z,16.57
2019-02-02T06:54:47.876Z,16.43
2019-02-02T06:57:51.255Z,16.73
2019-02-02T07:01:14.073Z,15.30
2019-02-02T07:04:17.457Z,16.67
2019-02-02T07:07:20.846Z,17.03
2019-02-02T07:10:43.630Z,17.13
2019-02-02T07:13:47.012Z,16.27
2019-02-02T07:16:50.403Z,17.30
2019-02-02T07:19:53.762Z,15.43
2019-02-02T07:22:57.377Z,17.37
2019-02-02T07:26:00.813Z,15.80
2019-02-02T07:29:04.186Z,16.77
2019-02-02T07:32:07.877Z,16.60
2019-02-02T07:35:54.042Z,16.73
2019-02-02T07:38:56.505Z,15.60
2019-02-02T07:41:59.893Z,16.40
2019-02-02T07:45:03.332Z,16.33
2019-02-02T07:48:19.725Z,16.93
2019-02-02T07:51:35.111Z,16.80
2019-02-02T07:54:38.518Z,16.43
2019-02-02T07:57:41.971Z,15.10
2019-02-02T08:01:04.747Z,15.83
2019-02-02T08:04:08.125Z,16.33
2019-02-02T08:07:30.844Z,16.53
2019-02-02T08:10:34.489Z,16.63
2019-02-02T08:13:37.879Z,17.50
2019-02-02T08:16:41.260Z,17.00
2019-02-02T08:19:44.638Z,17.20
2019-02-02T08:26:31.163Z,17.20
2019-02-02T08:29:34.550Z,15.90
2019-02-02T08:32:37.928Z,17.77
2019-02-02T08:35:41.624Z,16.97
2019-02-02T08:38:44.999Z,17.93
2019-02-02T08:42:07.713Z,17.93
2019-02-02T08:45:51.019Z,17.17
2019-02-02T08:48:54.392Z,19.87
2019-02-02T08:52:17.125Z,18.20
2019-02-02T08:55:20.510Z,20.10
2019-02-02T08:58:23.958Z,19.57
2019-02-02T09:01:27.346Z,20.37
2019-02-02T09:04:50.079Z,19.10
2019-02-02T09:08:12.769Z,19.20
2019-02-02T09:11:35.507Z,20.47
2019-02-02T09:14:38.919Z,20.67
2019-02-02T09:17:42.373Z,21.40
2019-02-02T09:20:45.791Z,20.70
2019-02-02T09:23:49.140Z,22.07
2019-02-02T09:26:52.866Z,20.03
2019-02-02T09:29:56.491Z,20.40
2019-02-02T09:33:19.244Z,20.23
2019-02-02T09:36:41.977Z,20.33
2019-02-02T09:39:45.332Z,19.50
2019-02-02T09:43:28.616Z,19.97
2019-02-02T09:46:32.001Z,19.47
2019-02-02T09:49:35.399Z,18.50
2019-02-02T09:52:38.770Z,19.67
2019-02-02T09:55:42.143Z,19.40
2019-02-02T09:58:45.521Z,19.80
2019-02-02T10:01:48.894Z,20.50
2019-02-02T10:04:52.304Z,19.90
2019-02-02T10:07:55.747Z,21.00
2019-02-02T10:10:59.445Z,20.83
2019-02-02T10:14:02.921Z,19.57
2019-02-02T10:17:06.274Z,20.77
2019-02-02T10:20:49.560Z,20.93
2019-02-02T10:23:52.949Z,19.60
2019-02-02T10:26:56.318Z,18.47
2019-02-02T10:29:59.723Z,19.87
2019-02-02T10:33:43.016Z,19.37
2019-02-02T10:36:46.388Z,20.40
2019-02-02T10:39:49.764Z,20.07
2019-02-02T10:43:04.961Z,19.57
2019-02-02T10:46:10.717Z,19.27
2019-02-02T10:49:13.486Z,20.20
2019-02-02T10:52:16.860Z,21.17
2019-02-02T10:58:49.843Z,20.53
2019-02-02T11:02:12.657Z,20.27
2019-02-02T11:05:35.460Z,21.37
2019-02-02T11:08:38.891Z,21.07
2019-02-02T11:11:42.323Z,21.17
2019-02-02T11:14:45.757Z,19.50
2019-02-02T11:17:49.284Z,20.53
2019-02-02T11:20:52.713Z,23.00
2019-02-02T11:23:56.132Z,23.67
2019-02-02T11:26:59.667Z,21.90
2019-02-02T11:30:44.509Z,20.13
2019-02-02T11:33:47.851Z,20.27
2019-02-02T11:36:51.244Z,21.83
2019-02-02T11:40:07.075Z,20.53
2019-02-02T11:43:10.587Z,22.30
2019-02-02T11:46:14.012Z,21.20
2019-02-02T11:49:17.364Z,21.43
2019-02-02T11:52:23.216Z,21.13
2019-02-02T11:56:05.752Z,19.57
2019-02-02T11:59:09.138Z,22.27
2019-02-02T12:02:14.562Z,20.17
2019-02-02T12:05:17.749Z,22.00
2019-02-02T12:08:21.123Z,22.50
2019-02-02T12:11:24.498Z,20.33
2019-02-02T12:14:27.871Z,21.33
2019-02-02T12:17:31.337Z,22.27
2019-02-02T12:20:34.757Z,22.90
2019-02-02T12:23:38.378Z,22.77
2019-02-02T12:26:42.057Z,22.07
2019-02-02T12:30:24.028Z,20.13
2019-02-02T12:33:27.404Z,20.63
2019-02-02T12:36:30.799Z,21.83
2019-02-02T12:39:34.501Z,20.37
2019-02-02T12:42:37.886Z,22.80
2019-02-02T12:49:17.666Z,20.50
2019-02-02T12:52:21.054Z,21.23
2019-02-02T12:55:26.102Z,20.20
2019-02-02T12:58:29.526Z,19.93
2019-02-02T13:01:32.917Z,18.77
2019-02-02T13:04:55.621Z,21.30
2019-02-02T13:07:59.012Z,19.83
2019-02-02T13:11:02.396Z,19.87
2019-02-02T13:14:45.704Z,19.43
2019-02-02T13:17:49.163Z,21.03
2019-02-02T13:20:52.547Z,23.10
2019-02-02T13:23:55.941Z,23.63
2019-02-02T13:26:59.308Z,24.20
2019-02-02T13:30:02.694Z,24.40
2019-02-02T13:33:45.988Z,22.83
2019-02-02T13:36:49.367Z,24.87
2019-02-02T13:39:52.755Z,26.77
2019-02-02T13:42:56.182Z,22.23
2019-02-02T13:45:59.561Z,22.37
2019-02-02T13:49:02.943Z,25.23
2019-02-02T13:52:25.991Z,23.63
2019-02-02T13:55:29.691Z,25.50
2019-02-02T13:58:52.396Z,25.40
2019-02-02T14:01:55.787Z,25.97
2019-02-02T14:04:59.178Z,24.13
2019-02-02T14:08:02.855Z,25.30
2019-02-02T14:11:06.304Z,23.50
2019-02-02T14:14:09.752Z,22.67
2019-02-02T14:17:13.137Z,24.17
2019-02-02T14:20:16.664Z,22.87
2019-02-02T14:23:20.043Z,21.27
2019-02-02T14:26:23.428Z,21.70
2019-02-02T14:29:26.800Z,22.00
2019-02-02T14:32:30.182Z,23.63
2019-02-02T14:35:33.862Z,21.47
2019-02-02T14:38:37.249Z,20.53
2019-02-02T14:41:40.631Z,22.40
2019-02-02T14:44:44.014Z,21.37
2019-02-02T14:47:47.621Z,22.30
2019-02-02T14:50:50.994Z,22.33
2019-02-02T14:53:54.457Z,19.93
2019-02-02T14:56:57.829Z,21.10
2019-02-02T15:00:01.225Z,20.77
2019-02-02T15:03:44.738Z,20.10
2019-02-02T15:06:48.127Z,19.70
2019-02-02T15:09:51.576Z,17.90
2019-02-02T15:12:55.023Z,17.13
2019-02-02T15:15:58.406Z,17.60
2019-02-02T15:19:21.112Z,17.07
2019-02-02T15:22:24.487Z,16.33
2019-02-02T15:25:28.014Z,18.20
2019-02-02T15:28:31.381Z,19.07
2019-02-02T15:31:34.835Z,18.00
2019-02-02T15:34:38.242Z,19.30
2019-02-02T15:37:54.115Z,19.00
2019-02-02T15:40:59.311Z,19.47
2019-02-02T15:44:21.942Z,21.97
2019-02-02T15:47:25.651Z,20.23
2019-02-02T15:50:29.111Z,22.93
2019-02-02T15:53:32.487Z,22.10
2019-02-02T15:56:35.887Z,22.10
2019-02-02T15:59:39.252Z,22.43
2019-02-02T16:02:42.652Z,22.37
2019-02-02T16:05:46.020Z,22.00
2019-02-02T16:08:49.403Z,24.03
2019-02-02T16:11:52.777Z,24.03
2019-02-02T16:15:15.571Z,23.70
2019-02-02T16:18:18.951Z,25.47
2019-02-02T16:21:22.321Z,23.90
2019-02-02T16:24:25.709Z,24.27
2019-02-02T16:27:29.094Z,24.33
2019-02-02T16:30:32.609Z,24.97
2019-02-02T16:33:35.987Z,25.60
2019-02-02T16:36:39.361Z,24.60
2019-02-02T16:39:43.011Z,27.27
2019-02-02T16:42:46.405Z,25.97
2019-02-02T16:46:09.192Z,25.10
2019-02-02T16:49:12.627Z,25.23
2019-02-02T16:52:16.490Z,24.00
2019-02-02T16:55:40.741Z,26.33
2019-02-02T16:58:44.132Z,28.33
2019-02-02T17:01:47.508Z,27.63
2019-02-02T17:04:50.910Z,29.20
2019-02-02T17:07:54.311Z,27.93
2019-02-02T17:10:57.829Z,29.30
2019-02-02T17:14:01.407Z,29.30
2019-02-02T17:17:05.126Z,28.73
2019-02-02T17:20:48.474Z,28.57
2019-02-02T17:24:11.196Z,29.80
2019-02-02T17:27:14.778Z,29.23
2019-02-02T17:30:58.076Z,29.10
2019-02-02T17:34:01.447Z,29.97
2019-02-02T17:37:24.180Z,30.70
2019-02-02T17:41:07.516Z,28.77
2019-02-02T17:44:10.855Z,29.03
2019-02-02T17:47:14.277Z,26.87
2019-02-02T17:50:57.550Z,27.30
2019-02-02T17:54:00.921Z,27.40
2019-02-02T17:57:04.385Z,27.33
2019-02-02T18:03:38.835Z,26.73
2019-02-02T18:06:42.214Z,25.77
2019-02-02T18:09:46.806Z,26.50
2019-02-02T18:12:50.930Z,26.53
2019-02-02T18:15:54.305Z,25.77
2019-02-02T18:18:57.699Z,22.60
2019-02-02T18:22:01.079Z,23.83
2019-02-02T18:25:44.361Z,23.93
2019-02-02T18:28:47.738Z,22.17
2019-02-02T18:31:51.113Z,21.90
2019-02-02T18:34:54.494Z,21.27
2019-02-02T18:37:57.890Z,24.37
2019-02-02T18:41:01.286Z,25.17
2019-02-02T18:44:04.798Z,25.37
2019-02-02T18:47:08.188Z,25.83
2019-02-02T18:50:30.910Z,25.27
2019-02-02T18:53:34.308Z,25.20
2019-02-02T18:56:37.699Z,27.87
2019-02-02T18:59:41.348Z,26.27
2019-02-02T19:02:44.792Z,26.00
2019-02-02T19:05:48.188Z,27.23
2019-02-02T19:08:51.586Z,26.70
2019-02-02T19:11:54.956Z,27.60
2019-02-02T19:14:58.351Z,27.93
2019-02-02T19:18:03.437Z,27.23
2019-02-02T19:21:06.897Z,27.00
2019-02-02T19:24:17.512Z,27.50
2019-02-02T19:27:20.898Z,27.23
2019-02-02T19:30:43.627Z,27.47
2019-02-02T19:33:47.244Z,27.30
2019-02-02T19:36:50.674Z,28.37
2019-02-02T19:40:14.488Z,27.63
2019-02-02T19:43:17.858Z,29.67
2019-02-02T19:46:41.119Z,30.93
2019-02-02T19:50:05.319Z,30.13
2019-02-02T19:53:08.707Z,32.50
2019-02-02T19:56:12.083Z,30.77
2019-02-02T19:59:15.573Z,31.10
2019-02-02T20:02:18.917Z,33.63
2019-02-02T20:05:41.773Z,34.23
2019-02-02T20:08:45.163Z,33.27
2019-02-02T20:11:48.618Z,32.83
2019-02-02T20:14:52.069Z,34.10
2019-02-02T20:18:14.831Z,34.50
2019-02-02T20:21:37.570Z,35.03
2019-02-02T20:24:40.953Z,35.63
2019-02-02T20:27:44.484Z,34.07
2019-02-02T20:30:48.174Z,34.50
2019-02-02T20:33:51.570Z,34.23
2019-02-02T20:36:54.953Z,33.00
2019-02-02T20:39:58.324Z,34.97
2019-02-02T20:43:01.948Z,32.93
2019-02-02T20:46:24.752Z,33.13
2019-02-02T20:49:28.434Z,34.10
2019-02-02T20:52:31.850Z,32.40
2019-02-02T20:56:15.204Z,31.73
2019-02-02T20:59:18.571Z,32.13
2019-02-02T21:02:22.030Z,31.93
2019-02-02T21:05:25.406Z,32.83
2019-02-02T21:08:28.802Z,31.93
2019-02-02T21:11:32.193Z,32.17
2019-02-02T21:14:35.583Z,31.30
2019-02-02T21:17:38.956Z,31.97
2019-02-02T21:20:42.635Z,32.00
2019-02-02T21:23:46.020Z,31.90
2019-02-02T21:26:51.353Z,31.27
2019-02-02T21:29:54.739Z,32.70
2019-02-02T21:32:58.188Z,32.27
2019-02-02T21:36:03.987Z,33.57
2019-02-02T21:39:26.016Z,32.83
2019-02-02T21:42:29.463Z,30.43
2019-02-02T21:45:52.178Z,32.40
2019-02-02T21:48:55.567Z,33.03
2019-02-02T21:51:58.956Z,34.63
2019-02-02T21:55:02.341Z,32.70
2019-02-02T21:58:05.725Z,32.87
2019-02-02T22:01:09.095Z,33.43
2019-02-02T22:04:31.813Z,36.50
2019-02-02T22:07:35.209Z,34.27
2019-02-02T22:10:38.655Z,34.60
2019-02-02T22:13:42.041Z,35.30
2019-02-02T22:16:45.426Z,34.67
2019-02-02T22:19:48.828Z,36.53
2019-02-02T22:23:11.652Z,36.13
2019-02-02T22:26:34.356Z,37.73
2019-02-02T22:29:37.750Z,37.27
2019-02-02T22:32:52.835Z,35.83
2019-02-02T22:35:56.227Z,37.00
2019-02-02T22:38:59.641Z,38.07
2019-02-02T22:42:03.029Z,40.43
2019-02-02T22:45:27.200Z,39.47
2019-02-02T22:48:30.573Z,37.60
2019-02-02T22:51:33.969Z,40.37
2019-02-02T22:54:37.609Z,41.07
2019-02-02T22:57:41.350Z,41.23
2019-02-02T23:01:24.671Z,41.10
2019-02-02T23:04:48.841Z,41.10
2019-02-02T23:08:32.187Z,39.40
2019-02-02T23:12:15.491Z,39.93
2019-02-02T23:15:58.848Z,37.80
2019-02-02T23:19:21.562Z,37.10
2019-02-02T23:22:24.949Z,39.07
2019-02-02T23:25:28.324Z,38.40
2019-02-02T23:28:32.129Z,37.57
2019-02-02T23:31:35.511Z,37.77
2019-02-02T23:34:38.896Z,37.83
2019-02-02T23:37:42.427Z,38.07
2019-02-02T23:40:45.802Z,36.07
2019-02-02T23:44:29.094Z,36.17
2019-02-02T23:47:32.476Z,35.50
2019-02-02T23:50:35.856Z,36.10
2019-02-02T23:53:39.427Z,34.13
2019-02-02T23:56:42.796Z,34.27
2019-02-02T23:59:46.178Z,34.37
